Monday, December 10, 2018, 9:20 PM EST
Back to Local

KMHT, Manchester Airport

Location: Manchester, NH, United States Lat: 42.933
Local Time: 9:20 PM EST ( 2:20 GMT) Lon: -71.433
Time Zone: US/Eastern Elev: 232 ft

Show me the last for .
Show Decoded

2018-12-10 20:53 METAR KMHT 110153Z 35004KT 10SM CLR M04/M12 A3015 RMK AO2 SLP228 T10391122 =
2018-12-10 19:53 METAR KMHT 110053Z 33007KT 10SM CLR M03/M13 A3015 RMK AO2 SLP227 T10281128 =
2018-12-10 18:53 METAR KMHT 102353Z 01008KT 10SM CLR M03/M12 A3014 RMK AO2 SLP225 T10281122 10022
                 21028 53013 =
2018-12-10 17:53 METAR KMHT 102253Z 35009KT 10SM CLR M02/M12 A3012 RMK AO2 SLP221 T10171122 =
2018-12-10 16:53 METAR KMHT 102153Z 35003KT 10SM CLR M01/M12 A3011 RMK AO2 SLP216 T10061122 =
2018-12-10 15:53 METAR KMHT 102053Z 33009KT 10SM CLR 01/M12 A3010 RMK AO2 SLP212 T00061122 52010
                 =
2018-12-10 14:53 METAR KMHT 101953Z 35012KT 10SM CLR 02/M12 A3009 RMK AO2 SLP208 T00171122 =
2018-12-10 13:53 METAR KMHT 101853Z 32011KT 10SM CLR 02/M12 A3008 RMK AO2 SLP205 T00171117 =
2018-12-10 12:53 METAR KMHT 101753Z 30011KT 10SM FEW050 02/M11 A3007 RMK AO2 SLP201 T00171106
                 10017 21039 58011 =
2018-12-10 11:53 METAR KMHT 101653Z 34011KT 10SM FEW045 01/M10 A3008 RMK AO2 SLP203 T00111100 =
2018-12-10 10:53 METAR KMHT 101553Z 32013KT 10SM FEW045 01/M10 A3011 RMK AO2 SLP213 T00061100 =
2018-12-10 09:53 METAR KMHT 101453Z 34016G19KT 10SM FEW150 01/M09 A3010 RMK AO2 SLP212 T00061094
                 53013 =
2018-12-10 08:53 METAR KMHT 101353Z 35015G20KT 10SM FEW150 00/M09 A3009 RMK AO2 SLP208 T00001089
                 =
2018-12-10 07:53 METAR KMHT 101253Z 35013KT 10SM FEW200 M01/M08 A3006 RMK AO2 SLP199 T10111083 =
2018-12-10 06:53 METAR KMHT 101153Z 00000KT 10SM FEW200 M04/M09 A3006 RMK AO2 SLP199 T10441089
                 11044 21089 53005 =
2018-12-10 05:53 METAR KMHT 101053Z 00000KT 10SM FEW250 M08/M11 A3006 RMK AO2 SLP199 T10781106 =
2018-12-10 04:53 METAR KMHT 100953Z VRB03KT 10SM FEW250 M08/M10 A3004 RMK AO2 SLP193 T10781100 =
2018-12-10 03:53 METAR KMHT 100853Z 35004KT 10SM SCT250 M07/M09 A3005 RMK AO2 SLP194 T10721094
                 58010 =
2018-12-10 02:53 METAR KMHT 100753Z 00000KT 10SM SCT250 M06/M09 A3006 RMK AO2 SLP199 T10611094 =
2018-12-10 01:53 METAR KMHT 100653Z 17003KT 10SM SCT250 M06/M09 A3006 RMK AO2 SLP200 T10561094 =
2018-12-10 00:53 METAR KMHT 100553Z 15006KT 10SM SCT250 M04/M09 A3008 RMK AO2 SLP203 T10441094
                 11017 21050 58013 =
2018-12-09 23:53 METAR KMHT 100453Z 18004KT 10SM SCT250 M04/M09 A3009 RMK AO2 SLP208 T10391094
                 400171117 =
2018-12-09 22:53 METAR KMHT 100353Z 19003KT 10SM SCT250 M03/M09 A3012 RMK AO2 SLP218 T10331089 =
2018-12-09 21:53 METAR KMHT 100253Z 18003KT 10SM FEW250 M03/M09 A3012 RMK AO2 SLP217 T10331089
                 55002 =

Support USWX by starting your Amazon purchase here.